createdAt,value
2024-04-13T00:04:09.657Z,10.49
2024-04-13T00:09:11.406Z,10.42
2024-04-13T00:14:12.753Z,10.4
2024-04-13T00:19:14.902Z,10.35
2024-04-13T00:24:16.682Z,10.28
2024-04-13T00:29:18.390Z,10.24
2024-04-13T00:34:19.922Z,10.22
2024-04-13T00:39:21.522Z,10.24
2024-04-13T00:44:23.639Z,10.27
2024-04-13T00:49:25.394Z,10.3
2024-04-13T00:54:27.323Z,10.34
2024-04-13T00:59:28.632Z,10.41
2024-04-13T01:04:30.267Z,10.45
2024-04-13T01:09:32.416Z,10.49
2024-04-13T01:14:33.973Z,10.5
2024-04-13T01:19:35.186Z,10.52
2024-04-13T01:24:37.193Z,10.53
2024-04-13T01:29:38.531Z,10.55
2024-04-13T01:34:40.082Z,10.58
2024-04-13T01:39:41.762Z,10.6
2024-04-13T01:44:43.106Z,10.57
2024-04-13T01:49:44.611Z,10.52
2024-04-13T01:54:46.247Z,10.46
2024-04-13T01:59:48.310Z,10.46
2024-04-13T02:04:50.439Z,10.45
2024-04-13T02:09:52.318Z,10.44
2024-04-13T02:14:54.058Z,10.45
2024-04-13T02:19:55.278Z,10.44
2024-04-13T02:24:56.533Z,10.43
2024-04-13T02:29:58.330Z,10.42
2024-04-13T02:35:00.032Z,10.4
2024-04-13T02:40:01.963Z,10.38
2024-04-13T02:45:03.336Z,10.34
2024-04-13T02:50:04.808Z,10.28
2024-04-13T02:55:06.919Z,10.24
2024-04-13T03:00:08.320Z,10.21
2024-04-13T03:05:09.718Z,10.17
2024-04-13T03:10:11.246Z,10.14
2024-04-13T03:15:13.391Z,10.12
2024-04-13T03:20:14.615Z,10.12
2024-04-13T03:25:15.978Z,10.09
2024-04-13T03:30:17.716Z,10.07
2024-04-13T03:35:19.261Z,10.04
2024-04-13T03:40:21.131Z,9.99
2024-04-13T03:45:22.808Z,9.93
2024-04-13T03:50:24.067Z,9.88
2024-04-13T03:55:26.153Z,9.85
2024-04-13T04:00:27.768Z,9.79
2024-04-13T04:05:29.794Z,9.74
2024-04-13T04:10:31.954Z,9.72
2024-04-13T04:15:33.264Z,9.7
2024-04-13T04:20:35.004Z,9.68
2024-04-13T04:25:36.252Z,9.67
2024-04-13T04:30:37.558Z,9.63
2024-04-13T04:35:39.015Z,9.59
2024-04-13T04:40:40.511Z,9.53
2024-04-13T04:45:42.680Z,9.49
2024-04-13T04:50:44.736Z,9.42
2024-04-13T04:55:46.232Z,9.34
2024-04-13T05:00:47.660Z,9.32
2024-04-13T05:05:49.280Z,9.26
2024-04-13T05:10:50.802Z,9.22
2024-04-13T05:15:52.039Z,9.26
2024-04-13T05:20:54.138Z,9.28
2024-04-13T05:25:55.733Z,9.31
2024-04-13T05:30:57.516Z,9.35
2024-04-13T05:36:00.112Z,9.42
2024-04-13T05:41:00.949Z,9.49
2024-04-13T05:46:02.850Z,9.59
2024-04-13T05:51:04.515Z,9.71
2024-04-13T05:56:06.023Z,9.84
2024-04-13T06:01:07.531Z,9.97
2024-04-13T06:06:09.604Z,10.12
2024-04-13T06:11:11.070Z,10.29
2024-04-13T06:16:12.666Z,10.48
2024-04-13T06:21:13.899Z,10.65
2024-04-13T06:26:15.999Z,10.86
2024-04-13T06:31:17.947Z,11.09
2024-04-13T06:36:19.754Z,11.31
2024-04-13T06:41:21.029Z,11.56
2024-04-13T06:46:22.981Z,11.84
2024-04-13T06:51:24.192Z,12.11
2024-04-13T06:56:25.754Z,12.31
2024-04-13T07:01:27.688Z,12.5
2024-04-13T07:06:30.330Z,12.72
2024-04-13T07:11:31.045Z,12.89
2024-04-13T07:16:33.185Z,13.09
2024-04-13T07:21:34.645Z,13.26
2024-04-13T07:26:36.390Z,13.42
2024-04-13T07:31:37.843Z,13.58
2024-04-13T07:36:39.400Z,13.75
2024-04-13T07:41:41.301Z,13.91
2024-04-13T07:46:42.882Z,14.08
2024-04-13T07:51:44.553Z,14.26
2024-04-13T07:56:46.369Z,14.41
2024-04-13T08:01:48.520Z,14.56
2024-04-13T08:06:50.564Z,14.73
2024-04-13T08:11:52.294Z,14.95
2024-04-13T08:16:53.800Z,15.15
2024-04-13T08:21:55.176Z,15.35
2024-04-13T08:26:57.170Z,15.5
2024-04-13T08:31:58.738Z,15.68
2024-04-13T08:37:00.837Z,15.83
2024-04-13T08:42:02.898Z,16
2024-04-13T08:47:04.618Z,16.17
2024-04-13T08:52:06.729Z,16.4
2024-04-13T08:57:08.074Z,16.62
2024-04-13T09:02:11.004Z,16.84
2024-04-13T09:07:11.597Z,17.08
2024-04-13T09:12:13.156Z,17.29
2024-04-13T09:17:14.618Z,17.56
2024-04-13T09:22:16.431Z,17.79
2024-04-13T09:27:17.943Z,18.06
2024-04-13T09:32:19.255Z,18.33
2024-04-13T09:42:22.619Z,18.9
2024-04-13T09:47:24.450Z,19.19
2024-04-13T09:52:25.676Z,19.44
2024-04-13T09:57:27.611Z,19.75
2024-04-13T10:02:29.464Z,20
2024-04-13T10:07:31.149Z,20.41
2024-04-13T10:12:33.254Z,20.72
2024-04-13T10:17:34.944Z,20.93
2024-04-13T10:22:38.253Z,21.14
2024-04-13T10:27:38.852Z,21.33
2024-04-13T10:32:40.711Z,21.49
2024-04-13T10:37:42.185Z,21.69
2024-04-13T10:42:44.421Z,21.87
2024-04-13T10:47:45.547Z,22.07
2024-04-13T10:52:47.609Z,22.29
2024-04-13T10:57:48.815Z,22.43
2024-04-13T11:02:50.473Z,22.61
2024-04-13T11:07:52.078Z,22.75
2024-04-13T11:12:53.615Z,22.9
2024-04-13T11:17:55.298Z,23.04
2024-04-13T11:22:56.873Z,23.16
2024-04-13T11:27:58.971Z,23.31
2024-04-13T11:33:00.991Z,23.45
2024-04-13T11:38:02.756Z,23.6
2024-04-13T11:43:03.991Z,23.72
2024-04-13T11:48:05.836Z,23.84
2024-04-13T11:53:07.828Z,23.97
2024-04-13T11:58:09.760Z,24.1
2024-04-13T12:03:11.392Z,24.26
2024-04-13T12:08:12.863Z,24.48
2024-04-13T12:13:14.623Z,24.75
2024-04-13T12:18:16.276Z,25.24
2024-04-13T12:23:17.237Z,25.82
2024-04-13T12:28:18.810Z,26.47
2024-04-13T12:33:20.395Z,27.17
2024-04-13T12:38:22.001Z,27.99
2024-04-13T12:43:23.439Z,28.93
2024-04-13T12:48:25.495Z,29.77
2024-04-13T12:53:27.124Z,30.4
2024-04-13T12:58:28.988Z,31.01
2024-04-13T13:03:31.052Z,31.73
2024-04-13T13:08:32.320Z,32.34
2024-04-13T13:13:34.088Z,32.84
2024-04-13T13:18:36.201Z,33.07
2024-04-13T13:23:37.815Z,33.34
2024-04-13T13:28:39.016Z,33.38
2024-04-13T13:33:40.381Z,33.47
2024-04-13T13:38:41.936Z,33.36
2024-04-13T13:43:43.312Z,33.12
2024-04-13T13:48:51.600Z,32.87
2024-04-13T13:53:53.253Z,32.63
2024-04-13T13:58:54.620Z,32.34
2024-04-13T14:03:55.945Z,32
2024-04-13T14:08:57.174Z,31.72
2024-04-13T14:13:58.710Z,31.4
2024-04-13T14:19:00.580Z,31.12
2024-04-13T14:24:02.119Z,30.67
2024-04-13T14:29:03.754Z,30.42
2024-04-13T14:34:05.429Z,30.16
2024-04-13T14:39:07.295Z,29.75
2024-04-13T14:44:09.028Z,29.43
2024-04-13T14:49:10.974Z,29.1
2024-04-13T14:54:12.271Z,28.76
2024-04-13T14:59:13.893Z,28.4
2024-04-13T15:04:15.437Z,28.01
2024-04-13T15:09:17.164Z,27.59
2024-04-13T15:14:18.971Z,27.2
2024-04-13T15:19:20.926Z,26.82
2024-04-13T15:24:22.406Z,26.52
2024-04-13T15:29:24.541Z,26.23
2024-04-13T15:34:26.530Z,25.97
2024-04-13T15:39:28.079Z,25.68
2024-04-13T15:44:29.362Z,25.38
2024-04-13T15:49:31.339Z,25.13
2024-04-13T15:54:33.224Z,24.86
2024-04-13T15:59:35.198Z,24.69
2024-04-13T16:04:37.209Z,24.59
2024-04-13T16:09:38.955Z,24.44
2024-04-13T16:14:40.335Z,24.38
2024-04-13T16:19:41.862Z,24.32
2024-04-13T16:24:43.176Z,24.21
2024-04-13T16:29:44.828Z,24.08
2024-04-13T16:34:46.031Z,23.95
2024-04-13T16:39:47.550Z,23.81
2024-04-13T16:44:49.313Z,23.68
2024-04-13T16:49:50.663Z,23.54
2024-04-13T16:54:52.848Z,23.32
2024-04-13T16:59:54.053Z,23.11
2024-04-13T17:04:55.923Z,22.76
2024-04-13T17:09:57.634Z,22.52
2024-04-13T17:14:59.480Z,22.13
2024-04-13T17:20:00.713Z,21.68
2024-04-13T17:25:10.071Z,21.32
2024-04-13T17:30:03.815Z,20.97
2024-04-13T17:35:05.589Z,20.72
2024-04-13T17:40:07.061Z,20.4
2024-04-13T17:45:08.984Z,20.2
2024-04-13T17:50:10.307Z,19.78
2024-04-13T17:55:11.877Z,19.42
2024-04-13T18:00:13.429Z,19.12
2024-04-13T18:05:15.076Z,19.01
2024-04-13T18:10:16.590Z,18.82
2024-04-13T18:15:17.940Z,18.48
2024-04-13T18:20:19.857Z,18.21
2024-04-13T18:25:21.630Z,18.09
2024-04-13T18:30:23.420Z,17.94
2024-04-13T18:35:24.754Z,17.79
2024-04-13T18:40:25.999Z,17.65
2024-04-13T18:45:27.225Z,17.48
2024-04-13T18:50:29.040Z,17.35
2024-04-13T18:55:30.532Z,17.21
2024-04-13T19:00:32.627Z,17.14
2024-04-13T19:05:34.668Z,17.03
2024-04-13T19:10:35.930Z,16.94
2024-04-13T19:15:37.177Z,16.84
2024-04-13T19:20:38.491Z,16.74
2024-04-13T19:25:40.306Z,16.66
2024-04-13T19:30:42.532Z,16.56
2024-04-13T19:35:43.865Z,16.44
2024-04-13T19:40:45.413Z,16.36
2024-04-13T19:45:46.645Z,16.26
2024-04-13T19:50:48.421Z,16.12
2024-04-13T19:55:50.506Z,15.97
2024-04-13T20:00:52.331Z,15.83
2024-04-13T20:05:53.714Z,15.69
2024-04-13T20:10:55.560Z,15.5
2024-04-13T20:15:57.446Z,15.35
2024-04-13T20:20:58.664Z,15.2
2024-04-13T20:26:00.092Z,15.05
2024-04-13T20:31:02.251Z,14.97
2024-04-13T20:36:04.037Z,14.89
2024-04-13T20:41:05.944Z,14.84
2024-04-13T20:46:07.627Z,14.8
2024-04-13T20:51:17.658Z,14.75
2024-04-13T20:56:11.724Z,14.7
2024-04-13T21:01:13.745Z,14.67
2024-04-13T21:06:15.806Z,14.62
2024-04-13T21:11:17.936Z,14.54
2024-04-13T21:16:19.322Z,14.48
2024-04-13T21:21:20.789Z,14.42
2024-04-13T21:26:22.426Z,14.38
2024-04-13T21:31:24.512Z,14.33
2024-04-13T21:36:25.969Z,14.26
2024-04-13T21:41:28.044Z,14.22
2024-04-13T21:46:29.600Z,14.15
2024-04-13T21:51:31.576Z,14.1
2024-04-13T21:56:33.180Z,14.04
2024-04-13T22:01:34.773Z,14
2024-04-13T22:06:35.880Z,13.98
2024-04-13T22:11:37.169Z,13.91
2024-04-13T22:16:38.566Z,13.87
2024-04-13T22:21:39.890Z,13.8
2024-04-13T22:26:41.108Z,13.75
2024-04-13T22:31:42.350Z,13.72
2024-04-13T22:36:43.948Z,13.71
2024-04-13T22:41:46.015Z,13.7
2024-04-13T22:46:47.306Z,13.65
2024-04-13T22:51:49.312Z,13.63
2024-04-13T22:56:51.320Z,13.63
2024-04-13T23:01:52.518Z,13.65
2024-04-13T23:06:54.550Z,13.66
2024-04-13T23:11:56.339Z,13.7
2024-04-13T23:16:58.316Z,13.77
2024-04-13T23:22:00.609Z,13.85
2024-04-13T23:27:01.839Z,13.94
2024-04-13T23:32:03.706Z,14.05
2024-04-13T23:37:05.622Z,14.1
2024-04-13T23:42:06.992Z,14.15
2024-04-13T23:47:08.825Z,14.09
2024-04-13T23:52:10.058Z,14.1
2024-04-13T23:57:11.654Z,14.11
